LFKJ/AJA METAR and TAF weather

Enter ICAO airport designator
Station Type Date Time Source
LFKJ METAR 2020/09/27 16:30 UTC NOAA

LFKJ 271630Z AUTO 23005KT 190V300 CAVOK 18/09 Q1003 TEMPO SHRA SCT020TCU


Station Type Date Time Source
LFKJ Decoded METAR 2020/09/27 16:30 UTC NOAA

Ajaccio, France (LFKJ) 41-55N 008-48E 9M
Sep 27, 2020 - 12:30 PM EDT / 2020.09.27 1630 UTC
Wind: from the SW (230 degrees) at 6 MPH (5 KT) (direction variable):0
Visibility: greater than 7 mile(s):0
Weather: Towering cumulus clouds observed
Temperature: 64 F (18 C)
Dew Point: 48 F (9 C)
Relative Humidity: 55%
Pressure (altimeter): 29.62 in. Hg (1003 hPa)
ob: LFKJ 271630Z AUTO 23005KT 190V300 CAVOK 18/09 Q1003 TEMPO SHRA SCT020TCU
cycle: 16

Station Type Date Time Source
LFKJ TAF 2020/09/27 15:46 UTC NOAA

TAF LFKJ 271400Z 2715/2815 07004KT 9999 FEW033 BKN045 PROB30
TEMPO 2718/2806 VRB10G20KT SHRA SCT020TCU
BECMG 2810/2812 24010KT

Example: see airport list